createdAt,value
2023-02-21T00:02:04.156Z,1.30
2023-02-21T00:04:49.512Z,1.40
2023-02-21T00:07:35.558Z,1.10
2023-02-21T00:10:21.240Z,1.20
2023-02-21T00:13:06.598Z,1.40
2023-02-21T00:15:52.466Z,1.60
2023-02-21T00:18:37.814Z,1.50
2023-02-21T00:21:24.055Z,1.70
2023-02-21T00:24:09.959Z,1.60
2023-02-21T00:26:55.470Z,1.60
2023-02-21T00:29:40.779Z,1.70
2023-02-21T00:32:26.609Z,1.40
2023-02-21T00:35:12.552Z,0.80
2023-02-21T00:37:58.333Z,1.00
2023-02-21T00:40:44.188Z,1.10
2023-02-21T00:43:30.046Z,1.60
2023-02-21T00:46:15.491Z,1.60
2023-02-21T00:49:01.057Z,1.40
2023-02-21T00:51:46.976Z,1.80
2023-02-21T00:54:32.814Z,1.40
2023-02-21T00:57:18.407Z,1.50
2023-02-21T01:00:03.825Z,1.40
2023-02-21T01:02:49.144Z,1.60
2023-02-21T01:05:35.212Z,1.50
2023-02-21T01:08:22.040Z,1.60
2023-02-21T01:11:07.718Z,1.50
2023-02-21T01:13:53.357Z,1.20
2023-02-21T01:16:38.639Z,1.60
2023-02-21T01:19:25.416Z,1.40
2023-02-21T01:22:10.754Z,1.00
2023-02-21T01:24:56.172Z,1.20
2023-02-21T01:27:41.632Z,1.50
2023-02-21T01:30:28.009Z,0.90
2023-02-21T01:33:13.734Z,1.00
2023-02-21T01:36:00.743Z,1.00
2023-02-21T01:38:46.378Z,1.10
2023-02-21T01:41:32.113Z,1.50
2023-02-21T01:44:20.644Z,1.10
2023-02-21T01:47:06.189Z,0.90
2023-02-21T01:49:54.788Z,1.20
2023-02-21T01:52:40.492Z,1.20
2023-02-21T01:55:27.788Z,1.10
2023-02-21T01:58:15.235Z,0.90
2023-02-21T02:01:01.525Z,2.10
2023-02-21T02:03:50.088Z,1.10
2023-02-21T02:06:36.535Z,1.20
2023-02-21T02:09:39.835Z,1.60
2023-02-21T02:12:57.122Z,1.20
2023-02-21T02:15:39.048Z,1.70
2023-02-21T02:18:28.184Z,1.70
2023-02-21T02:20:58.124Z,1.00
2023-02-21T02:26:25.416Z,1.40
2023-02-21T02:29:29.366Z,1.60
2023-02-21T02:32:13.818Z,1.50
2023-02-21T02:35:13.909Z,1.40
2023-02-21T02:38:02.418Z,1.30
2023-02-21T02:40:37.718Z,1.80
2023-02-21T02:43:20.728Z,2.00
2023-02-21T02:45:59.285Z,1.40
2023-02-21T02:48:44.528Z,1.30
2023-02-21T02:51:14.975Z,1.50
2023-02-21T02:53:42.773Z,1.70
2023-02-21T02:56:13.625Z,1.50
2023-02-21T02:58:42.740Z,2.00
2023-02-21T03:01:47.358Z,1.90
2023-02-21T03:04:41.321Z,1.40
2023-02-21T03:07:40.909Z,2.00
2023-02-21T03:10:45.117Z,2.00
2023-02-21T03:13:20.733Z,1.50
2023-02-21T03:19:18.176Z,1.50
2023-02-21T03:22:08.223Z,1.70
2023-02-21T03:27:07.378Z,1.60
2023-02-21T03:30:01.482Z,1.70
2023-02-21T03:32:33.937Z,1.80
2023-02-21T03:35:02.113Z,2.10
2023-02-21T03:37:38.835Z,1.50
2023-02-21T03:40:20.585Z,2.00
2023-02-21T03:42:51.653Z,2.20
2023-02-21T03:45:19.201Z,1.70
2023-02-21T03:47:55.701Z,2.10
2023-02-21T03:50:22.756Z,2.10
2023-02-21T03:52:50.194Z,2.10
2023-02-21T03:55:17.763Z,2.40
2023-02-21T03:57:45.413Z,1.50
2023-02-21T04:00:14.297Z,1.70
2023-02-21T04:02:44.820Z,1.90
2023-02-21T04:05:21.201Z,2.30
2023-02-21T04:07:48.523Z,2.50
2023-02-21T04:10:16.706Z,2.20
2023-02-21T04:12:45.657Z,1.70
2023-02-21T04:15:12.984Z,1.80
2023-02-21T04:17:39.887Z,1.90
2023-02-21T04:20:08.615Z,1.90
2023-02-21T04:22:40.693Z,1.70
2023-02-21T04:25:09.204Z,2.20
2023-02-21T04:27:45.618Z,1.90
2023-02-21T04:30:12.831Z,2.20
2023-02-21T04:32:39.767Z,2.10
2023-02-21T04:35:10.888Z,1.80
2023-02-21T04:37:38.223Z,2.20
2023-02-21T04:40:05.562Z,2.40
2023-02-21T04:42:34.553Z,3.30
2023-02-21T04:45:03.328Z,2.40
2023-02-21T04:47:30.324Z,2.50
2023-02-21T04:49:58.803Z,2.90
2023-02-21T04:52:25.722Z,2.50
2023-02-21T04:54:52.621Z,2.90
2023-02-21T04:57:19.462Z,2.90
2023-02-21T04:59:46.605Z,2.70
2023-02-21T05:02:13.657Z,3.00
2023-02-21T05:04:40.678Z,3.20
2023-02-21T05:07:07.512Z,2.80
2023-02-21T05:09:34.320Z,3.40
2023-02-21T05:12:01.164Z,3.10
2023-02-21T05:14:28.017Z,3.20
2023-02-21T05:16:54.907Z,3.10
2023-02-21T05:19:27.778Z,3.30
2023-02-21T05:22:00.660Z,3.10
2023-02-21T05:24:29.862Z,2.70
2023-02-21T05:26:58.306Z,3.30
2023-02-21T05:29:26.011Z,3.30
2023-02-21T05:31:53.093Z,2.60
2023-02-21T05:34:19.997Z,2.30
2023-02-21T05:36:47.432Z,2.50
2023-02-21T05:39:14.282Z,2.30
2023-02-21T05:41:47.649Z,2.30
2023-02-21T05:44:14.732Z,2.40
2023-02-21T05:46:41.616Z,1.90
2023-02-21T05:49:09.206Z,2.60
2023-02-21T05:51:42.871Z,1.70
2023-02-21T05:54:17.272Z,3.00
2023-02-21T05:56:46.079Z,2.50
2023-02-21T05:59:14.741Z,2.60
2023-02-21T06:01:42.187Z,2.20
2023-02-21T06:04:09.037Z,2.60
2023-02-21T06:06:36.525Z,2.20
2023-02-21T06:09:05.091Z,2.70
2023-02-21T06:11:34.833Z,2.30
2023-02-21T06:14:05.735Z,3.90
2023-02-21T06:16:35.038Z,2.60
2023-02-21T06:19:02.982Z,2.70
2023-02-21T06:21:29.951Z,1.90
2023-02-21T06:23:56.868Z,2.30
2023-02-21T06:26:23.877Z,1.90
2023-02-21T06:28:51.403Z,2.10
2023-02-21T06:31:19.992Z,2.20
2023-02-21T06:33:48.497Z,2.40
2023-02-21T06:36:19.251Z,2.00
2023-02-21T06:38:48.836Z,2.50
2023-02-21T06:41:18.302Z,3.00
2023-02-21T06:43:45.144Z,1.90
2023-02-21T06:46:20.199Z,2.20
2023-02-21T06:48:47.289Z,3.00
2023-02-21T06:51:14.948Z,2.40
2023-02-21T06:53:43.501Z,3.30
2023-02-21T06:56:11.012Z,2.70
2023-02-21T06:58:38.014Z,2.80
2023-02-21T07:01:05.242Z,2.90
2023-02-21T07:03:32.185Z,3.40
2023-02-21T07:05:59.128Z,2.50
2023-02-21T07:08:26.707Z,3.20
2023-02-21T07:10:53.785Z,3.70
2023-02-21T07:13:22.497Z,2.50
2023-02-21T07:15:49.680Z,2.60
2023-02-21T07:18:16.767Z,2.50
2023-02-21T07:20:43.935Z,3.10
2023-02-21T07:23:11.027Z,3.30
2023-02-21T07:25:38.001Z,3.80
2023-02-21T07:28:05.196Z,2.20
2023-02-21T07:30:32.230Z,2.70
2023-02-21T07:32:59.566Z,3.20
2023-02-21T07:35:26.916Z,3.20
2023-02-21T07:37:54.233Z,3.10
2023-02-21T07:40:21.129Z,2.70
2023-02-21T07:42:48.246Z,2.20
2023-02-21T07:45:17.148Z,3.40
2023-02-21T07:47:47.983Z,3.60
2023-02-21T07:50:16.144Z,3.80
2023-02-21T07:52:43.533Z,3.00
2023-02-21T07:55:12.568Z,3.20
2023-02-21T07:57:39.578Z,2.70
2023-02-21T08:00:07.296Z,2.70
2023-02-21T08:02:40.420Z,3.00
2023-02-21T08:05:09.001Z,3.20
2023-02-21T08:07:35.942Z,3.00
2023-02-21T08:10:04.895Z,3.80
2023-02-21T08:12:31.779Z,3.20
2023-02-21T08:14:58.699Z,3.30
2023-02-21T08:17:26.597Z,2.90
2023-02-21T08:19:53.512Z,3.80
2023-02-21T08:22:20.503Z,3.20
2023-02-21T08:24:50.691Z,2.90
2023-02-21T08:27:18.390Z,3.90
2023-02-21T08:29:45.786Z,3.80
2023-02-21T08:32:12.685Z,4.00
2023-02-21T08:34:39.596Z,3.10
2023-02-21T08:37:17.560Z,3.60
2023-02-21T08:39:49.148Z,3.70
2023-02-21T08:42:16.119Z,4.50
2023-02-21T08:44:45.014Z,3.80
2023-02-21T08:47:13.273Z,3.20
2023-02-21T08:49:41.443Z,4.30
2023-02-21T08:52:09.450Z,3.00
2023-02-21T08:54:37.453Z,4.80
2023-02-21T08:57:04.635Z,3.50
2023-02-21T08:59:33.892Z,3.90
2023-02-21T09:02:02.164Z,3.60
2023-02-21T09:04:31.535Z,3.80
2023-02-21T09:06:58.425Z,4.40
2023-02-21T09:09:25.383Z,4.10
2023-02-21T09:11:52.230Z,3.60
2023-02-21T09:14:19.266Z,3.90
2023-02-21T09:16:47.871Z,3.60
2023-02-21T09:19:15.168Z,4.30
2023-02-21T09:21:47.693Z,3.50
2023-02-21T09:24:14.746Z,4.30
2023-02-21T09:26:42.789Z,4.10
2023-02-21T09:29:12.431Z,3.80
2023-02-21T09:31:39.699Z,3.80
2023-02-21T09:34:06.865Z,4.50
2023-02-21T09:36:36.509Z,3.10
2023-02-21T09:39:06.830Z,4.20
2023-02-21T09:41:35.963Z,2.90
2023-02-21T09:44:05.223Z,3.60
2023-02-21T09:46:44.622Z,3.80
2023-02-21T09:49:21.992Z,3.60
2023-02-21T09:51:50.483Z,3.80
2023-02-21T09:54:35.438Z,4.30
2023-02-21T09:57:05.509Z,4.00
2023-02-21T09:59:33.585Z,4.20
2023-02-21T10:02:06.453Z,3.70
2023-02-21T10:05:14.335Z,4.20
2023-02-21T10:08:00.223Z,3.40
2023-02-21T10:10:30.066Z,3.10
2023-02-21T10:13:15.748Z,3.40
2023-02-21T10:15:48.633Z,3.50
2023-02-21T10:18:34.055Z,4.20
2023-02-21T10:21:05.836Z,4.80
2023-02-21T10:23:37.025Z,3.40
2023-02-21T10:26:09.639Z,3.90
2023-02-21T10:28:38.387Z,3.50
2023-02-21T10:31:21.388Z,3.40
2023-02-21T10:33:48.872Z,3.80
2023-02-21T10:36:23.686Z,2.90
2023-02-21T10:39:09.109Z,3.10
2023-02-21T10:41:40.084Z,3.30
2023-02-21T10:44:30.795Z,3.60
2023-02-21T10:47:22.670Z,3.20
2023-02-21T10:50:02.052Z,3.70
2023-02-21T10:52:28.932Z,4.80
2023-02-21T10:55:33.126Z,4.80
2023-02-21T10:58:10.148Z,4.40
2023-02-21T11:00:39.355Z,4.20
2023-02-21T11:03:31.099Z,3.20
2023-02-21T11:05:58.454Z,3.20
2023-02-21T11:08:51.849Z,3.60
2023-02-21T11:11:37.443Z,3.30
2023-02-21T11:14:26.322Z,2.90
2023-02-21T11:17:14.383Z,3.10
2023-02-21T11:19:58.017Z,2.90
2023-02-21T11:22:26.513Z,3.30
2023-02-21T11:25:08.660Z,3.10
2023-02-21T11:27:37.148Z,3.10
2023-02-21T11:30:16.196Z,2.90
2023-02-21T11:32:49.043Z,2.90
2023-02-21T11:35:27.444Z,3.10
2023-02-21T11:38:02.413Z,3.80
2023-02-21T11:40:49.372Z,3.80
2023-02-21T11:43:24.164Z,3.80
2023-02-21T11:46:05.354Z,3.70
2023-02-21T11:48:42.939Z,4.30
2023-02-21T11:51:27.434Z,4.00
2023-02-21T11:53:54.810Z,3.70
2023-02-21T11:56:24.627Z,4.10
2023-02-21T11:59:27.130Z,4.00
2023-02-21T12:02:31.958Z,3.80
2023-02-21T12:05:08.222Z,4.50
2023-02-21T12:08:17.174Z,3.60
2023-02-21T12:11:11.821Z,3.90
2023-02-21T12:14:11.055Z,3.80
2023-02-21T12:17:09.204Z,3.50
2023-02-21T12:19:53.220Z,3.30
2023-02-21T12:22:46.441Z,3.20
2023-02-21T12:25:44.809Z,3.70
2023-02-21T12:28:39.347Z,3.00
2023-02-21T12:31:15.910Z,3.70
2023-02-21T12:34:10.424Z,3.00
2023-02-21T12:36:49.464Z,3.10
2023-02-21T12:39:16.394Z,2.70
2023-02-21T12:42:05.153Z,3.20
2023-02-21T12:44:44.221Z,3.40
2023-02-21T12:47:29.852Z,3.50
2023-02-21T12:50:12.802Z,3.50
2023-02-21T12:52:58.543Z,2.80
2023-02-21T12:55:29.999Z,3.10
2023-02-21T12:58:04.692Z,3.80
2023-02-21T13:00:44.393Z,4.20
2023-02-21T13:03:41.072Z,3.40
2023-02-21T13:06:31.713Z,4.30
2023-02-21T13:09:39.464Z,4.20
2023-02-21T13:12:25.700Z,3.90
2023-02-21T13:14:57.423Z,3.60
2023-02-21T13:17:25.807Z,3.90
2023-02-21T13:20:07.756Z,3.40
2023-02-21T13:23:31.430Z,3.60
2023-02-21T13:26:30.411Z,6.00
2023-02-21T13:28:59.002Z,3.70
2023-02-21T13:31:39.774Z,4.60
2023-02-21T13:34:09.210Z,4.10
2023-02-21T13:36:39.229Z,3.80
2023-02-21T13:39:09.078Z,4.00
2023-02-21T13:41:39.791Z,4.40
2023-02-21T13:44:47.413Z,4.40
2023-02-21T13:47:17.628Z,3.10
2023-02-21T13:49:51.460Z,3.80
2023-02-21T13:52:24.337Z,3.60
2023-02-21T13:55:14.187Z,4.30
2023-02-21T13:57:50.537Z,5.40
2023-02-21T14:00:29.821Z,6.20
2023-02-21T14:03:05.766Z,3.90
2023-02-21T14:05:48.147Z,4.20
2023-02-21T14:08:19.702Z,4.60
2023-02-21T14:11:14.244Z,6.30
2023-02-21T14:14:03.197Z,3.30
2023-02-21T14:16:48.924Z,3.80
2023-02-21T14:19:42.275Z,4.50
2023-02-21T14:22:16.442Z,4.10
2023-02-21T14:24:53.665Z,3.70
2023-02-21T14:27:20.550Z,3.20
2023-02-21T14:30:03.055Z,3.90
2023-02-21T14:32:38.153Z,3.30
2023-02-21T14:35:20.280Z,3.60
2023-02-21T14:38:21.162Z,3.30
2023-02-21T14:41:01.667Z,3.60
2023-02-21T14:43:38.020Z,3.30
2023-02-21T14:46:34.070Z,3.30
2023-02-21T14:49:41.808Z,5.00
2023-02-21T14:52:17.621Z,3.70
2023-02-21T14:55:24.176Z,4.40
2023-02-21T14:58:09.452Z,3.50
2023-02-21T15:00:39.481Z,4.80
2023-02-21T15:06:03.430Z,4.70
2023-02-21T15:08:41.331Z,3.90
2023-02-21T15:11:16.834Z,4.20
2023-02-21T15:13:44.242Z,3.40
2023-02-21T15:16:14.437Z,4.10
2023-02-21T15:18:57.869Z,4.50
2023-02-21T15:21:24.790Z,4.10
2023-02-21T15:24:08.883Z,4.40
2023-02-21T15:26:35.878Z,5.00
2023-02-21T15:29:17.532Z,5.30
2023-02-21T15:31:56.009Z,5.60
2023-02-21T15:34:28.288Z,5.60
2023-02-21T15:37:24.283Z,5.00
2023-02-21T15:39:55.662Z,5.50
2023-02-21T15:42:23.892Z,5.40
2023-02-21T15:44:56.450Z,4.90
2023-02-21T15:47:26.106Z,6.20
2023-02-21T15:50:13.804Z,6.20
2023-02-21T15:52:48.894Z,6.50
2023-02-21T15:55:18.778Z,5.50
2023-02-21T16:00:34.236Z,6.20
2023-02-21T16:03:27.488Z,7.20
2023-02-21T16:06:17.208Z,6.80
2023-02-21T16:09:22.116Z,7.80
2023-02-21T16:12:00.982Z,8.30
2023-02-21T16:14:55.393Z,8.70
2023-02-21T16:17:32.480Z,8.10
2023-02-21T16:20:06.612Z,7.50
2023-02-21T16:23:06.258Z,5.80
2023-02-21T16:25:25.849Z,9.80
2023-02-21T16:27:56.272Z,9.60
2023-02-21T16:30:31.660Z,9.80
2023-02-21T16:33:04.556Z,10.20
2023-02-21T16:35:33.123Z,10.00
2023-02-21T16:38:01.166Z,9.60
2023-02-21T16:40:34.466Z,12.60
2023-02-21T16:43:03.286Z,10.40
2023-02-21T16:45:31.221Z,10.70
2023-02-21T16:48:01.490Z,9.70
2023-02-21T16:50:36.326Z,10.10
2023-02-21T16:53:04.029Z,9.70
2023-02-21T16:55:31.303Z,11.20
2023-02-21T16:58:04.413Z,10.10
2023-02-21T17:00:33.641Z,10.00
2023-02-21T17:03:00.925Z,9.40
2023-02-21T17:05:28.043Z,10.30
2023-02-21T17:07:56.548Z,10.20
2023-02-21T17:10:23.660Z,10.80
2023-02-21T17:12:50.507Z,10.00
2023-02-21T17:15:17.745Z,8.50
2023-02-21T17:17:52.649Z,8.70
2023-02-21T17:20:22.024Z,9.20
2023-02-21T17:22:49.229Z,9.90
2023-02-21T17:25:16.722Z,10.10
2023-02-21T17:27:44.749Z,8.80
2023-02-21T17:30:12.483Z,8.50
2023-02-21T17:32:39.742Z,8.50
2023-02-21T17:35:07.691Z,8.00
2023-02-21T17:37:35.191Z,7.80
2023-02-21T17:40:02.901Z,8.30
2023-02-21T17:42:29.769Z,8.50
2023-02-21T17:44:57.716Z,8.30
2023-02-21T17:47:24.862Z,9.00
2023-02-21T17:49:54.763Z,8.70
2023-02-21T17:54:49.321Z,9.00
2023-02-21T17:57:16.706Z,9.00
2023-02-21T17:59:45.953Z,8.50
2023-02-21T18:02:13.732Z,8.90
2023-02-21T18:04:41.243Z,7.50
2023-02-21T18:07:11.483Z,9.40
2023-02-21T18:09:38.913Z,9.20
2023-02-21T18:12:06.450Z,8.70
2023-02-21T18:14:34.239Z,8.00
2023-02-21T18:17:01.504Z,8.40
2023-02-21T18:19:29.405Z,7.40
2023-02-21T18:21:56.625Z,7.10
2023-02-21T18:24:23.861Z,8.10
2023-02-21T18:26:51.054Z,7.00
2023-02-21T18:29:19.048Z,8.10
2023-02-21T18:31:51.418Z,8.30
2023-02-21T18:34:19.106Z,7.10
2023-02-21T18:36:51.809Z,8.20
2023-02-21T18:39:21.601Z,7.70
2023-02-21T18:41:49.694Z,7.00
2023-02-21T18:44:17.036Z,8.10
2023-02-21T18:46:54.353Z,8.60
2023-02-21T18:49:25.300Z,8.40
2023-02-21T18:51:53.628Z,7.20
2023-02-21T18:54:22.536Z,7.60
2023-02-21T18:56:52.024Z,7.80
2023-02-21T18:59:21.866Z,6.80
2023-02-21T19:01:49.989Z,6.20
2023-02-21T19:04:17.463Z,7.00
2023-02-21T19:06:45.378Z,7.20
2023-02-21T19:09:13.450Z,7.70
2023-02-21T19:11:40.602Z,8.90
2023-02-21T19:14:09.408Z,7.60
2023-02-21T19:16:39.315Z,7.70
2023-02-21T19:19:08.434Z,8.20
2023-02-21T19:21:37.614Z,8.30
2023-02-21T19:24:07.386Z,8.90
2023-02-21T19:26:36.869Z,10.70
2023-02-21T19:29:07.420Z,10.00
2023-02-21T19:31:37.398Z,9.00
2023-02-21T19:34:08.850Z,8.40
2023-02-21T19:36:40.479Z,7.90
2023-02-21T19:39:09.942Z,7.00
2023-02-21T19:41:38.447Z,8.10
2023-02-21T19:44:09.598Z,7.50
2023-02-21T19:46:39.675Z,7.10
2023-02-21T19:51:54.246Z,7.00
2023-02-21T19:54:25.292Z,8.20
2023-02-21T19:56:55.212Z,8.70
2023-02-21T19:59:26.385Z,8.60
2023-02-21T20:01:55.883Z,9.20
2023-02-21T20:04:26.030Z,7.90
2023-02-21T20:06:58.172Z,8.00
2023-02-21T20:09:27.435Z,9.80
2023-02-21T20:11:56.438Z,10.60
2023-02-21T20:20:51.866Z,8.60
2023-02-21T20:23:19.193Z,7.80
2023-02-21T20:25:46.337Z,9.80
2023-02-21T20:28:13.603Z,12.10
2023-02-21T20:30:40.976Z,11.50
2023-02-21T20:33:08.021Z,6.70
2023-02-21T20:35:35.259Z,5.60
2023-02-21T20:38:05.849Z,3.70
2023-02-21T20:40:33.579Z,2.60
2023-02-21T20:43:00.955Z,3.10
2023-02-21T20:45:28.797Z,3.50
2023-02-21T20:47:56.376Z,3.30
2023-02-21T20:50:25.537Z,3.70
2023-02-21T20:52:52.731Z,2.70
2023-02-21T20:55:22.600Z,3.00
2023-02-21T20:57:50.105Z,2.90
2023-02-21T21:00:18.856Z,3.40
2023-02-21T21:02:45.874Z,3.10
2023-02-21T21:05:17.004Z,3.30
2023-02-21T21:07:45.648Z,3.90
2023-02-21T21:10:15.892Z,3.60
2023-02-21T21:12:43.974Z,4.10
2023-02-21T21:15:13.286Z,5.20
2023-02-21T21:17:40.343Z,5.80
2023-02-21T21:20:10.623Z,5.20
2023-02-21T21:22:37.714Z,4.90
2023-02-21T21:25:07.961Z,5.30
2023-02-21T21:27:40.957Z,5.20
2023-02-21T21:30:09.506Z,5.10
2023-02-21T21:32:36.585Z,5.20
2023-02-21T21:35:07.182Z,4.30
2023-02-21T21:37:36.108Z,4.40
2023-02-21T21:40:16.692Z,4.30
2023-02-21T21:42:47.917Z,4.70
2023-02-21T21:45:23.199Z,4.60
2023-02-21T21:47:54.425Z,4.20
2023-02-21T21:50:22.681Z,5.10
2023-02-21T21:52:54.128Z,5.50
2023-02-21T21:55:25.728Z,5.50
2023-02-21T21:57:53.792Z,5.30
2023-02-21T22:00:25.199Z,4.50
2023-02-21T22:02:58.058Z,5.60
2023-02-21T22:05:35.612Z,5.50
2023-02-21T22:08:03.981Z,5.30
2023-02-21T22:10:31.030Z,6.30
2023-02-21T22:13:00.079Z,6.10
2023-02-21T22:15:29.656Z,6.20
2023-02-21T22:18:02.051Z,6.70
2023-02-21T22:20:31.443Z,6.80
2023-02-21T22:22:59.428Z,5.70
2023-02-21T22:25:30.234Z,4.80
2023-02-21T22:27:58.343Z,4.90
2023-02-21T22:30:25.877Z,6.70
2023-02-21T22:32:52.937Z,6.20
2023-02-21T22:35:20.708Z,6.40
2023-02-21T22:37:53.172Z,5.60
2023-02-21T22:40:24.635Z,6.10
2023-02-21T22:42:53.327Z,6.00
2023-02-21T22:45:26.300Z,6.70
2023-02-21T22:47:55.943Z,5.90
2023-02-21T22:50:24.445Z,5.30
2023-02-21T22:52:57.055Z,5.20
2023-02-21T22:55:26.283Z,5.70
2023-02-21T22:57:55.721Z,6.40
2023-02-21T23:00:33.128Z,6.50
2023-02-21T23:03:14.761Z,6.70
2023-02-21T23:05:49.788Z,5.60
2023-02-21T23:08:19.511Z,6.60
2023-02-21T23:10:47.811Z,4.90
2023-02-21T23:13:23.713Z,4.60
2023-02-21T23:15:54.094Z,4.50
2023-02-21T23:18:23.370Z,4.50
2023-02-21T23:20:53.799Z,4.40
2023-02-21T23:23:26.092Z,4.40
2023-02-21T23:25:56.557Z,4.20
2023-02-21T23:28:23.568Z,5.20
2023-02-21T23:30:50.713Z,5.20
2023-02-21T23:33:23.187Z,4.90
2023-02-21T23:35:51.917Z,6.40
2023-02-21T23:38:22.548Z,4.30
2023-02-21T23:40:58.792Z,4.50
2023-02-21T23:43:30.985Z,4.10
2023-02-21T23:45:59.386Z,4.50
2023-02-21T23:48:26.713Z,7.60
2023-02-21T23:50:58.169Z,14.30
2023-02-21T23:53:29.422Z,11.50
2023-02-21T23:56:00.930Z,12.90
2023-02-21T23:58:32.417Z,6.60
